Latest Coastal Weather Observations for McCluer Island

IDD60701

Issued at 5:55 pm CST Thursday 27 November 2014 (issued every 10 minutes, with the page automatically refreshed every 10 minutes)

About coastal observations | Map of coastal stations | Coastal observations for NT | Marine services | Other Formats
Station Details ID: 014274 Name: MCCLUER ISLAND Lat: -11.05 Lon: 132.98 Height: 1.4 m
Data from the previous 72 hours. | See also: Recent months at McCluer Island
Date/Time
CST
Temp

°C
Wind Pressure Rain
since 9am
mm
Weather Cloud Vis
km
Sea
Height
m
Swell
Dir
 
Speed
knots
Gust
knots
hPa Trend Height
m
Period
s
Dir
27/05:00pm 29.8 NE 17 19 1006.8 - 0.0 - - - - - - -
27/04:30pm 29.9 ENE 17 19 1006.7 - 0.0 - - - - - - -
27/04:00pm 30.0 ENE 17 19 1006.7 - 0.0 - - - - - - -
27/03:30pm 30.1 ENE 16 19 1006.7 - 0.0 - - - - - - -
27/03:00pm 30.2 ENE 16 18 1007.1 - 0.0 - - - - - - -
27/02:30pm 30.3 E 15 19 1007.4 - 0.0 - - - - - - -
27/02:00pm 30.2 ENE 13 15 1007.7 - 0.0 - - - - - - -
27/01:30pm 30.8 ENE 12 14 1008.0 - 0.0 - - - - - - -
27/01:00pm 30.1 ENE 11 13 1008.4 - 0.0 - - - - - - -
27/12:30pm 30.5 E 12 14 1008.6 - 0.0 - - - - - - -
27/12:00pm 30.5 E 12 14 1008.9 - 0.0 - - - - - - -
27/11:30am 31.0 E 12 15 1009.2 - 0.0 - - - - - - -
27/11:00am 30.6 E 11 12 1009.5 - 0.0 - - - - - - -
27/10:30am 29.9 E 12 14 1009.5 - 0.0 - - - - - - -
27/10:00am 29.6 ENE 12 14 1009.7 - 0.0 - - - - - - -
27/09:30am 29.6 E 13 15 1009.6 - 0.0 - - - - - - -
27/09:00am 29.6 E 12 14 1009.3 - 0.8 - - - - - - -
27/08:30am 29.3 ENE 12 14 1009.0 - 0.8 - - - - - - -
27/08:00am 29.1 E 13 15 1008.9 - 0.8 - - - - - - -
27/07:30am 29.3 ENE 12 14 1008.6 - 0.8 - - - - - - -
27/07:00am 28.9 E 12 14 1008.4 - 0.8 - - - - - - -
27/06:30am 28.5 ENE 12 14 1008.0 - 0.8 - - - - - - -
27/06:00am 28.4 ENE 11 14 1007.7 - 0.8 - - - - - - -
27/05:30am 28.4 ENE 12 13 1007.6 - 0.8 - - - - - - -
27/05:00am 28.7 ENE 11 13 1007.0 - 0.8 - - - - - - -
27/04:30am 28.6 ENE 12 14 1006.9 - 0.8 - - - - - - -
27/04:00am 28.8 ENE 12 14 1006.9 - 0.8 - - - - - - -
27/03:30am 28.6 ENE 13 15 1006.8 - 0.8 - - - - - - -
27/03:00am 28.7 ENE 12 14 1006.9 - 0.8 - - - - - - -
27/02:30am 29.0 ENE 13 15 1007.0 - 0.8 - - - - - - -
27/02:00am 28.6 ENE 12 14 1007.1 - 0.8 - - - - - - -
27/01:30am 28.6 ENE 12 14 1007.3 - 0.8 - - - - - - -
27/01:00am 28.8 ENE 13 16 1007.5 - 0.8 - - - - - - -
27/12:30am 28.8 ENE 10 11 1007.8 - 0.8 - - - - - - -
27/12:00am 28.7 ENE 10 11 1008.0 - 0.8 - - - - - - -
 
Date/Time
CST
Temp

°C
Wind Pressure Rain
since 9am
mm
Weather Cloud Vis
km
Sea
Height
m
Swell
Dir
 
Speed
knots
Gust
knots
hPa Trend Height
m
Period
s
Dir
26/11:30pm 28.8 ENE 9 11 1008.1 - 0.8 - - - - - - -
26/11:00pm 29.0 ENE 11 13 1008.4 - 0.8 - - - - - - -
26/10:30pm 28.8 ENE 12 14 1008.4 - 0.8 - - - - - - -
26/10:00pm 28.9 E 13 15 1008.3 - 0.8 - - - - - - -
26/09:30pm 29.0 ENE 14 17 1008.0 - 0.8 - - - - - - -
26/09:00pm 28.7 ENE 12 14 1007.8 - 0.8 - - - - - - -
26/08:30pm 29.0 ENE 12 15 1007.2 - 0.8 - - - - - - -
26/08:00pm 28.8 NE 15 17 1006.7 - 0.8 - - - - - - -
26/07:30pm 28.9 ENE 14 15 1006.3 - 0.8 - - - - - - -
26/07:00pm 28.7 ENE 13 15 1006.1 - 0.8 - - - - - - -
26/06:30pm 28.9 ENE 13 14 1006.0 - 0.8 - - - - - - -
26/06:00pm 29.6 ENE 13 15 1006.0 - 0.8 - - - - - - -
26/05:30pm 29.3 ENE 15 18 1005.9 - 0.8 - - - - - - -
26/05:00pm 29.2 ENE 14 17 1005.7 - 0.8 - - - - - - -
26/04:30pm 29.4 ENE 16 19 1005.5 - 0.8 - - - - - - -
26/04:00pm 29.2 ENE 15 17 1005.6 - 0.8 - - - - - - -
26/03:30pm 29.6 E 14 16 1005.8 - 0.8 - - - - - - -
26/03:00pm 29.3 E 14 16 1006.1 - 0.8 - - - - - - -
26/02:30pm 29.3 ENE 13 15 1006.2 - 0.8 - - - - - - -
26/02:00pm 29.6 E 14 17 1006.4 - 0.8 - - - - - - -
26/01:30pm 29.2 E 15 17 1006.8 - 0.8 - - - - - - -
26/01:00pm 27.0 ESE 11 18 1007.5 - 0.8 - - - - - - -
26/12:43pm 28.5 E 24 35 1007.8 - 0.0 - - - - - - -
26/12:38pm 28.8 E 24 30 1007.9 - 0.0 - - - - - - -
26/12:30pm 30.8 E 10 12 1008.0 - 0.0 - - - - - - -
26/12:00pm 30.6 E 10 12 1008.2 - 0.0 - - - - - - -
26/11:30am 29.9 E 12 14 1008.6 - 0.0 - - - - - - -
26/11:00am 31.1 ESE 11 13 1008.7 - 0.0 - - - - - - -
26/10:30am 31.1 E 8 9 1009.1 - 0.0 - - - - - - -
26/10:00am 30.7 E 8 10 1009.1 - 0.0 - - - - - - -
26/09:30am 30.7 E 7 8 1008.9 - 0.0 - - - - - - -
26/09:00am 30.0 E 7 8 1008.6 - 0.0 - - - - - - -
26/08:30am 30.0 E 5 7 1008.7 - 0.0 - - - - - - -
26/08:00am 30.1 ESE 4 6 1008.2 - 0.0 - - - - - - -
26/07:30am 29.1 ENE 5 7 1007.8 - 0.0 - - - - - - -
26/07:00am 28.9 E 4 5 1007.6 - 0.0 - - - - - - -
26/06:30am 27.5 E 2 4 1007.3 - 0.0 - - - - - - -
26/06:00am 26.6 SE 5 6 1007.1 - 0.0 - - - - - - -
26/05:30am 27.0 ESE 5 7 1006.9 - 0.0 - - - - - - -
26/05:00am 27.3 ESE 5 6 1006.6 - 0.0 - - - - - - -
26/04:30am 26.7 ESE 5 6 1006.5 - 0.0 - - - - - - -
26/04:00am 26.7 SE 5 6 1006.5 - 0.0 - - - - - - -
26/03:30am 26.6 SE 6 7 1006.3 - 0.0 - - - - - - -
26/03:00am 26.7 ESE 5 6 1006.3 - 0.0 - - - - - - -
26/02:30am 26.8 SE 5 6 1006.5 - 0.0 - - - - - - -
26/02:00am 26.9 SE 4 5 1006.7 - 0.0 - - - - - - -
26/01:30am 27.1 SE 4 5 1006.9 - 0.0 - - - - - - -
26/01:00am 28.3 E 6 7 1007.0 - 0.0 - - - - - - -
26/12:30am 28.4 E 8 11 1007.4 - 0.0 - - - - - - -
26/12:00am 28.9 E 9 11 1007.7 - 0.0 - - - - - - -
 
Date/Time
CST
Temp

°C
Wind Pressure Rain
since 9am
mm
Weather Cloud Vis
km
Sea
Height
m
Swell
Dir
 
Speed
knots
Gust
knots
hPa Trend Height
m
Period
s
Dir
25/11:30pm 28.6 E 7 9 1007.9 - 0.0 - - - - - - -
25/11:00pm 28.7 E 8 10 1007.9 - 0.0 - - - - - - -
25/10:30pm 28.8 ENE 8 10 1007.8 - 0.0 - - - - - - -
25/10:00pm 28.7 ENE 7 9 1007.8 - 0.0 - - - - - - -
25/09:30pm 28.8 ENE 7 10 1007.8 - 0.0 - - - - - - -
25/09:00pm 28.7 NE 7 8 1007.7 - 0.0 - - - - - - -
25/08:30pm 28.9 NE 8 9 1007.5 - 0.0 - - - - - - -
25/08:00pm 28.8 NNE 7 9 1007.1 - 0.0 - - - - - - -
25/07:30pm 28.9 NE 6 8 1007.3 - 0.0 - - - - - - -
25/07:00pm 28.9 ENE 6 8 1007.2 - 0.0 - - - - - - -
25/06:30pm 29.2 NE 7 9 1006.9 - 0.0 - - - - - - -
25/06:00pm 29.3 NE 7 10 1007.0 - 0.0 - - - - - - -
25/05:30pm 29.6 NE 7 9 1006.9 - 0.0 - - - - - - -
25/05:00pm 29.5 NNE 9 11 1006.4 - 0.0 - - - - - - -
25/04:30pm 29.6 NNE 8 10 1006.3 - 0.0 - - - - - - -
25/04:00pm 29.8 NNE 9 12 1006.1 - 0.0 - - - - - - -
25/03:30pm 30.0 NE 9 11 1006.0 - 0.0 - - - - - - -
25/03:00pm 30.0 NE 10 13 1006.1 - 0.0 - - - - - - -
25/02:30pm 30.2 NE 9 12 1006.8 - 0.0 - - - - - - -
25/02:00pm 30.5 ENE 7 9 1007.3 - 0.0 - - - - - - -
25/01:30pm 30.3 ENE 7 9 1008.0 - 0.0 - - - - - - -
25/01:00pm 30.4 ENE 8 9 1008.4 - 0.0 - - - - - - -
25/12:30pm 30.4 NE 8 10 1008.7 - 0.0 - - - - - - -
25/12:00pm 29.9 NE 7 9 1008.9 - 0.0 - - - - - - -
25/11:30am 30.2 NE 7 8 1009.2 - 0.0 - - - - - - -
25/11:00am 29.9 ENE 7 9 1009.6 - 0.0 - - - - - - -
25/10:30am 29.9 ENE 8 9 1009.5 - 0.0 - - - - - - -
25/10:00am 29.7 ENE 9 11 1009.3 - 0.0 - - - - - - -
25/09:30am 29.7 ENE 11 12 1009.3 - 0.0 - - - - - - -
25/09:00am 29.7 E 11 12 1009.4 - 0.0 - - - - - - -
25/08:30am 29.3 E 10 12 1009.1 - 0.0 - - - - - - -
25/08:00am 29.3 E 8 10 1008.9 - 0.0 - - - - - - -
25/07:30am 29.0 E 7 9 1009.0 - 0.0 - - - - - - -
25/07:00am 28.4 E 6 7 1008.7 - 0.0 - - - - - - -
25/06:30am 27.2 E 4 6 1008.3 - 0.0 - - - - - - -
25/06:00am 26.8 E 3 4 1008.0 - 0.0 - - - - - - -
25/05:30am 26.7 ESE 3 4 1007.8 - 0.0 - - - - - - -
25/05:00am 27.0 E 3 5 1007.7 - 0.0 - - - - - - -
25/04:30am 27.8 ENE 2 5 1007.3 - 0.0 - - - - - - -
25/04:00am 26.6 CALM 0 0 1007.4 - 0.0 - - - - - - -
25/03:30am 26.9 SSE 1 3 1007.4 - 0.0 - - - - - - -
25/03:00am 27.0 CALM 0 0 1007.5 - 0.0 - - - - - - -
25/02:30am 27.2 CALM 0 0 1007.4 - 0.0 - - - - - - -
25/02:00am 26.9 CALM 0 0 1007.7 - 0.0 - - - - - - -
25/01:30am 27.3 CALM 0 4 1008.3 - 0.0 - - - - - - -
25/01:00am 27.7 CALM 0 0 1008.9 - 0.0 - - - - - - -
25/12:30am 27.9 CALM 0 0 1009.2 - 0.0 - - - - - - -
25/12:00am 28.1 CALM 0 0 1009.7 - 0.0 - - - - - - -
 
Date/Time
CST
Temp

°C
Wind Pressure Rain
since 9am
mm
Weather Cloud Vis
km
Sea
Height
m
Swell
Dir
 
Speed
knots
Gust
knots
hPa Trend Height
m
Period
s
Dir
24/11:30pm 27.9 CALM 0 0 1009.8 - 0.0 - - - - - - -
24/11:00pm 27.8 CALM 0 0 1009.7 - 0.0 - - - - - - -
24/10:30pm 28.4 NE 2 5 1009.7 - 0.0 - - - - - - -
24/10:00pm 28.9 NE 5 6 1009.5 - 0.0 - - - - - - -
24/09:30pm 28.5 N 3 6 1009.2 - 0.0 - - - - - - -
24/09:00pm 28.5 N 5 6 1008.8 - 0.0 - - - - - - -
24/08:30pm 28.4 N 7 8 1008.4 - 0.0 - - - - - - -
24/08:00pm 28.8 N 8 10 1008.2 - 0.0 - - - - - - -
24/07:30pm 28.9 N 8 11 1007.9 - 0.0 - - - - - - -
24/07:00pm 28.9 NNE 10 12 1007.4 - 0.0 - - - - - - -
24/06:30pm 28.7 NNE 11 12 1007.2 - 0.0 - - - - - - -
24/06:00pm 29.1 NE 11 14 1006.6 - 0.0 - - - - - - -

Other Formats:

Comma delimited format used in spreadsheet applications
http://www.bom.gov.au/fwo/IDD60701/IDD60701.94135.axf

JavaScript Object Notation format (JSON) in row-major order
http://www.bom.gov.au/fwo/IDD60701/IDD60701.94135.json